Time;durP1;ratioP1;P1;durP2;ratioP2;P2;SDS_P1;SDS_P2;PMS_P1;PMS_P2;Temp;Humidity;BMP_temperature;BMP_pressure;BME280_temperature;BME280_humidity;BME280_pressure;Samples;Min_cycle;Max_cycle;Signal;HPM_P1;HPM_P2
2023/04/27 00:01:19;;;;;;;4.43;2.75;;;6.90;96.90;;;;;;5028413;28;20497;-65
2023/04/27 00:03:44;;;;;;;6.57;2.80;;;6.90;97.10;;;;;;5032847;28;20545;-66
2023/04/27 00:06:10;;;;;;;10.65;2.60;;;6.80;97.10;;;;;;5042954;28;20021;-65
2023/04/27 00:08:36;;;;;;;6.95;3.17;;;6.70;98.10;;;;;;5029142;28;20030;-65
2023/04/27 00:11:02;;;;;;;5.20;2.72;;;6.60;98.40;;;;;;5025329;28;20021;-65
2023/04/27 00:13:27;;;;;;;6.88;3.30;;;6.50;98.10;;;;;;5006615;28;20049;-65
2023/04/27 00:15:53;;;;;;;5.57;3.17;;;6.50;98.20;;;;;;5025708;28;20164;-65
2023/04/27 00:18:19;;;;;;;8.55;2.80;;;6.50;97.90;;;;;;5033816;28;20032;-65
2023/04/27 00:20:45;;;;;;;7.53;3.17;;;6.50;98.00;;;;;;5034182;28;20053;-66
2023/04/27 00:23:11;;;;;;;7.25;3.45;;;6.50;98.50;;;;;;5036239;28;20048;-66
2023/04/27 00:25:37;;;;;;;4.75;2.40;;;6.40;98.30;;;;;;5032087;28;20065;-66
2023/04/27 00:28:02;;;;;;;10.05;3.13;;;6.40;98.50;;;;;;5037727;28;20025;-65
2023/04/27 00:30:28;;;;;;;6.55;3.05;;;6.50;98.30;;;;;;5018162;28;20029;-65
2023/04/27 00:32:53;;;;;;;7.32;3.80;;;6.40;98.70;;;;;;5035169;28;20075;-66
2023/04/27 00:35:19;;;;;;;12.70;3.45;;;6.50;98.80;;;;;;5034384;28;20113;-65
2023/04/27 00:37:45;;;;;;;8.98;3.65;;;6.50;99.40;;;;;;5034921;28;20112;-65
2023/04/27 00:40:11;;;;;;;7.32;3.50;;;6.40;99.20;;;;;;5034458;28;20053;-65
2023/04/27 00:42:36;;;;;;;7.95;2.85;;;6.40;99.70;;;;;;5028906;28;20197;-65
2023/04/27 00:45:04;;;;;;;7.43;4.00;;;6.50;99.30;;;;;;5029413;28;20105;-65
2023/04/27 00:47:31;;;;;;;8.10;3.67;;;6.50;98.70;;;;;;5014311;28;20041;-66
2023/04/27 00:49:57;;;;;;;8.00;4.25;;;6.50;99.20;;;;;;5030983;28;20532;-65
2023/04/27 00:52:22;;;;;;;8.05;3.80;;;6.50;99.60;;;;;;5033422;28;20160;-65
2023/04/27 00:54:50;;;;;;;10.07;3.85;;;6.50;99.50;;;;;;5015305;28;20025;-65
2023/04/27 00:57:16;;;;;;;10.60;4.00;;;6.50;99.90;;;;;;5026083;28;20030;-65
2023/04/27 00:59:42;;;;;;;14.23;4.40;;;6.50;99.80;;;;;;5029265;28;20021;-65
2023/04/27 01:02:09;;;;;;;7.03;3.67;;;6.50;99.70;;;;;;5012921;28;20109;-65
2023/04/27 01:04:35;;;;;;;8.77;3.70;;;6.50;99.90;;;;;;5035291;28;20037;-64
2023/04/27 01:07:01;;;;;;;7.68;3.95;;;6.50;99.90;;;;;;5029653;28;20047;-65
2023/04/27 01:09:27;;;;;;;8.23;3.38;;;6.60;99.70;;;;;;5030106;28;20071;-64
2023/04/27 01:11:52;;;;;;;8.82;4.25;;;6.50;99.90;;;;;;5032032;28;20132;-66
2023/04/27 01:14:18;;;;;;;7.22;3.55;;;6.50;99.90;;;;;;5028113;28;20029;-66
2023/04/27 01:16:45;;;;;;;8.45;3.63;;;6.50;99.90;;;;;;5026442;28;20082;-63
2023/04/27 01:19:11;;;;;;;8.23;3.95;;;6.50;99.90;;;;;;5038334;28;20040;-65
2023/04/27 01:21:36;;;;;;;7.57;3.60;;;6.40;99.90;;;;;;5035008;28;20108;-65
2023/04/27 01:24:06;;;;;;;7.75;3.80;;;6.40;99.90;;;;;;5029831;28;20124;-65
2023/04/27 01:26:32;;;;;;;11.10;4.47;;;6.40;99.90;;;;;;5014794;28;20060;-65
2023/04/27 01:28:57;;;;;;;6.65;3.75;;;6.40;99.90;;;;;;5028068;28;20064;-65
2023/04/27 01:31:23;;;;;;;6.93;3.45;;;6.30;99.90;;;;;;5036941;28;20447;-65
2023/04/27 01:33:48;;;;;;;7.50;4.20;;;6.30;99.90;;;;;;5034830;28;20021;-65
2023/04/27 01:36:14;;;;;;;11.48;3.90;;;6.20;99.90;;;;;;5032108;28;20030;-65
2023/04/27 01:38:40;;;;;;;6.20;3.05;;;6.20;99.90;;;;;;5027005;28;20037;-66
2023/04/27 01:41:08;;;;;;;12.82;4.13;;;6.20;99.90;;;;;;5034931;28;20394;-65
2023/04/27 01:43:34;;;;;;;11.43;3.75;;;6.10;99.90;;;;;;5031004;28;20108;-65
2023/04/27 01:46:07;;;;;;;8.20;4.15;;;6.10;99.90;;;;;;5035700;28;20506;-65
2023/04/27 01:48:34;;;;;;;7.68;3.97;;;6.10;99.90;;;;;;5013068;28;20037;-65
2023/04/27 01:51:00;;;;;;;7.30;4.13;;;6.10;99.90;;;;;;5025106;28;20410;-65
2023/04/27 01:53:26;;;;;;;7.53;4.07;;;6.00;99.90;;;;;;5027464;28;20029;-65
2023/04/27 01:55:51;;;;;;;10.38;4.35;;;6.00;99.90;;;;;;5029643;28;20041;-65
2023/04/27 01:58:17;;;;;;;15.25;4.55;;;6.00;99.90;;;;;;5028254;28;20163;-65
2023/04/27 02:00:42;;;;;;;10.88;4.15;;;6.00;99.90;;;;;;5026158;28;20437;-65
2023/04/27 02:03:08;;;;;;;10.18;4.20;;;5.90;99.90;;;;;;5027955;28;20025;-65
2023/04/27 02:05:34;;;;;;;10.48;4.43;;;5.90;99.90;;;;;;5025903;28;20021;-64
2023/04/27 02:07:59;;;;;;;8.43;4.80;;;5.90;99.90;;;;;;5022521;28;20026;-65
2023/04/27 02:10:25;;;;;;;12.63;4.93;;;5.80;99.90;;;;;;5023405;28;20021;-65
2023/04/27 02:12:50;;;;;;;9.30;3.90;;;5.90;99.90;;;;;;5025545;28;20063;-64
2023/04/27 02:15:16;;;;;;;10.70;4.68;;;5.80;99.90;;;;;;5026828;28;20505;-65
2023/04/27 02:17:42;;;;;;;9.13;4.40;;;5.80;99.90;;;;;;5028547;28;20037;-65
2023/04/27 02:20:09;;;;;;;9.45;4.57;;;5.80;99.90;;;;;;5029807;28;20021;-65
2023/04/27 02:22:35;;;;;;;17.40;5.20;;;5.80;99.90;;;;;;5031247;28;20086;-64
2023/04/27 02:25:01;;;;;;;10.80;4.80;;;5.80;99.90;;;;;;5030876;28;20021;-65
2023/04/27 02:27:27;;;;;;;9.35;4.72;;;5.80;99.90;;;;;;5031184;28;20689;-65
2023/04/27 02:29:52;;;;;;;9.13;4.05;;;5.80;99.90;;;;;;5030688;28;20028;-64
2023/04/27 02:32:18;;;;;;;9.43;4.28;;;5.80;99.90;;;;;;5030271;28;20537;-64
2023/04/27 02:34:44;;;;;;;7.38;4.43;;;5.90;99.90;;;;;;5031932;28;20032;-64
2023/04/27 02:37:09;;;;;;;13.07;4.15;;;5.80;99.90;;;;;;5044704;28;20098;-65
2023/04/27 02:39:35;;;;;;;16.00;6.60;;;5.80;99.90;;;;;;5042170;28;20021;-65
2023/04/27 02:42:02;;;;;;;10.70;4.60;;;5.80;99.90;;;;;;5033625;28;20033;-64
2023/04/27 02:44:28;;;;;;;12.75;4.40;;;5.80;99.90;;;;;;5033309;28;20371;-65
2023/04/27 02:46:53;;;;;;;11.68;4.00;;;5.80;99.90;;;;;;5002448;28;20083;-65
2023/04/27 02:49:19;;;;;;;11.95;4.40;;;5.80;99.90;;;;;;5009287;28;20045;-65
2023/04/27 02:51:45;;;;;;;8.95;4.40;;;5.80;99.90;;;;;;5027939;28;20034;-64
2023/04/27 02:54:10;;;;;;;12.05;5.00;;;5.80;99.90;;;;;;5027064;28;20041;-65
2023/04/27 02:56:36;;;;;;;16.60;4.90;;;5.80;99.90;;;;;;5025981;28;20068;-66
2023/04/27 02:59:02;;;;;;;8.98;3.92;;;5.80;99.90;;;;;;5028031;28;20655;-64
2023/04/27 03:01:28;;;;;;;8.27;4.72;;;5.70;99.90;;;;;;5028211;28;20109;-65
2023/04/27 03:03:54;;;;;;;8.63;4.22;;;5.70;99.90;;;;;;5027400;28;20025;-64
2023/04/27 03:06:19;;;;;;;15.13;4.85;;;5.70;99.90;;;;;;5026708;28;20022;-65
2023/04/27 03:08:45;;;;;;;17.92;5.18;;;5.70;99.90;;;;;;5047740;23;20133;-66
2023/04/27 03:11:11;;;;;;;12.43;4.88;;;5.60;99.90;;;;;;5027185;28;20032;-65
2023/04/27 03:13:42;;;;;;;11.23;5.00;;;5.60;99.90;;;;;;5006733;28;20026;-67
2023/04/27 03:16:10;;;;;;;10.02;5.07;;;5.50;99.90;;;;;;5023715;28;20034;-69
2023/04/27 03:18:36;;;;;;;9.98;4.47;;;5.40;99.90;;;;;;5024076;28;20022;-67
2023/04/27 03:21:09;;;;;;;10.80;5.03;;;5.40;99.90;;;;;;5017020;28;20025;-67
2023/04/27 03:23:35;;;;;;;13.27;5.65;;;5.30;99.90;;;;;;5026920;28;20059;-67
2023/04/27 03:26:06;;;;;;;12.00;4.63;;;5.30;99.90;;;;;;5025906;28;20031;-68
2023/04/27 03:28:31;;;;;;;20.75;5.60;;;5.30;99.90;;;;;;5023951;28;20021;-66
2023/04/27 03:30:57;;;;;;;11.57;5.50;;;5.20;99.90;;;;;;5018623;28;20038;-67
2023/04/27 03:33:22;;;;;;;10.05;5.05;;;5.20;99.90;;;;;;5022349;28;20037;-66
2023/04/27 03:35:55;;;;;;;8.30;5.15;;;5.10;99.90;;;;;;5027222;28;20194;-66
2023/04/27 03:38:21;;;;;;;10.18;4.40;;;5.10;99.90;;;;;;5019714;28;20446;-68
2023/04/27 03:40:46;;;;;;;11.60;5.03;;;5.00;99.90;;;;;;5018167;28;20026;-67
2023/04/27 03:43:12;;;;;;;9.85;5.45;;;5.00;99.90;;;;;;5024249;28;20025;-67
2023/04/27 03:45:37;;;;;;;13.98;6.20;;;4.90;99.90;;;;;;5017184;28;20064;-67
2023/04/27 03:48:03;;;;;;;11.80;5.32;;;4.90;99.90;;;;;;5004571;28;20057;-66
2023/04/27 03:50:29;;;;;;;11.00;5.85;;;4.90;99.90;;;;;;5025297;28;20026;-67
2023/04/27 03:52:55;;;;;;;10.27;4.80;;;4.90;99.90;;;;;;4999833;28;20103;-66
2023/04/27 03:55:20;;;;;;;8.45;4.75;;;4.80;99.90;;;;;;5020368;28;20049;-68
2023/04/27 03:57:46;;;;;;;8.45;5.00;;;4.80;99.90;;;;;;5025939;28;20533;-68
2023/04/27 04:00:13;;;;;;;13.32;5.50;;;4.80;99.90;;;;;;5021462;28;20045;-66
2023/04/27 04:02:39;;;;;;;10.85;5.03;;;4.70;99.90;;;;;;5021018;28;20026;-67
2023/04/27 04:05:05;;;;;;;10.50;6.05;;;4.70;99.90;;;;;;5023359;28;20033;-66
2023/04/27 04:07:30;;;;;;;11.55;4.90;;;4.70;99.90;;;;;;5023130;28;20064;-67
2023/04/27 04:09:56;;;;;;;13.52;5.45;;;4.70;99.90;;;;;;5023770;28;20045;-67
2023/04/27 04:12:21;;;;;;;15.23;5.47;;;4.70;99.90;;;;;;5017217;28;20496;-67
2023/04/27 04:14:47;;;;;;;13.90;5.15;;;4.70;99.90;;;;;;5002636;28;20029;-67
2023/04/27 04:17:13;;;;;;;15.15;5.82;;;4.60;99.90;;;;;;5020502;28;20799;-67
2023/04/27 04:19:39;;;;;;;11.93;6.05;;;4.60;99.90;;;;;;5003939;28;20036;-68
2023/04/27 04:22:05;;;;;;;11.80;5.50;;;4.50;99.90;;;;;;5019034;28;20068;-67
2023/04/27 04:24:30;;;;;;;9.65;5.05;;;4.60;99.90;;;;;;5021475;28;20080;-64
2023/04/27 04:26:57;;;;;;;14.75;5.45;;;4.50;99.90;;;;;;5021312;28;20111;-68
2023/04/27 04:29:23;;;;;;;9.63;5.40;;;4.50;99.90;;;;;;5022305;28;20044;-66
2023/04/27 04:31:49;;;;;;;15.27;6.18;;;4.50;99.90;;;;;;5016851;28;20037;-67
2023/04/27 04:34:14;;;;;;;14.95;5.45;;;4.70;99.90;;;;;;5020488;28;20033;-65
2023/04/27 04:36:40;;;;;;;13.10;5.55;;;4.70;99.90;;;;;;5020899;28;20039;-67
2023/04/27 04:39:06;;;;;;;12.68;6.32;;;4.70;99.90;;;;;;5019776;28;20126;-68
2023/04/27 04:41:31;;;;;;;10.60;5.70;;;4.70;99.90;;;;;;5021090;28;20048;-68
2023/04/27 04:43:57;;;;;;;13.07;5.57;;;4.70;99.90;;;;;;5020949;28;20042;-65
2023/04/27 04:46:26;;;;;;;13.27;6.10;;;4.80;99.90;;;;;;5017032;28;20113;-67
2023/04/27 04:48:52;;;;;;;12.68;5.93;;;4.80;99.90;;;;;;5001967;28;20049;-67
2023/04/27 04:51:18;;;;;;;13.95;6.20;;;4.80;99.90;;;;;;5026958;28;20049;-66
2023/04/27 04:53:43;;;;;;;13.07;4.93;;;4.90;99.90;;;;;;5024382;28;20049;-66
2023/04/27 04:56:12;;;;;;;12.77;6.20;;;4.90;99.90;;;;;;5027583;28;20036;-68
2023/04/27 04:58:38;;;;;;;10.50;6.00;;;5.00;99.90;;;;;;5028163;28;20501;-67
2023/04/27 05:01:05;;;;;;;10.52;5.93;;;5.00;99.90;;;;;;5028552;28;20021;-67
2023/04/27 05:03:31;;;;;;;16.50;6.10;;;5.10;99.90;;;;;;5003552;28;20065;-66
2023/04/27 05:05:57;;;;;;;12.95;5.85;;;5.40;99.90;;;;;;5000891;28;20664;-67
2023/04/27 05:08:22;;;;;;;14.13;5.63;;;5.80;99.90;;;;;;5022801;28;20121;-68
2023/04/27 05:10:52;;;;;;;12.35;6.28;;;6.20;99.90;;;;;;5025135;28;20955;-66
2023/04/27 05:13:19;;;;;;;8.88;5.43;;;6.80;99.90;;;;;;5028028;28;20025;-68
2023/04/27 05:15:44;;;;;;;9.32;6.20;;;7.50;99.90;;;;;;5023793;28;20083;-67
2023/04/27 05:18:10;;;;;;;10.45;5.85;;;8.00;99.90;;;;;;5026109;28;20129;-66
2023/04/27 05:20:36;;;;;;;12.05;5.50;;;7.80;99.90;;;;;;5029689;28;20044;-67
2023/04/27 05:23:02;;;;;;;12.20;5.38;;;7.40;99.90;;;;;;5021008;28;20313;-68
2023/04/27 05:25:31;;;;;;;11.70;5.60;;;7.20;99.90;;;;;;5018058;28;20032;-67
2023/04/27 05:27:57;;;;;;;14.38;5.63;;;7.00;99.90;;;;;;5005268;28;20022;-66
2023/04/27 05:30:23;;;;;;;12.85;6.57;;;7.00;99.90;;;;;;5024718;28;20589;-66
2023/04/27 05:32:48;;;;;;;13.02;6.50;;;6.90;99.90;;;;;;5023846;28;20029;-69
2023/04/27 05:35:14;;;;;;;11.82;6.40;;;6.70;99.90;;;;;;5026330;28;20043;-66
2023/04/27 05:37:40;;;;;;;13.55;6.25;;;6.70;99.90;;;;;;5026465;28;20391;-67
2023/04/27 05:40:08;;;;;;;8.48;4.80;;;6.60;99.90;;;;;;5027797;28;20088;-68
2023/04/27 05:42:34;;;;;;;12.88;6.15;;;6.50;99.90;;;;;;5029509;28;20565;-67
2023/04/27 05:45:00;;;;;;;11.77;6.00;;;6.60;99.90;;;;;;5027743;28;20026;-66
2023/04/27 05:47:25;;;;;;;15.27;6.10;;;6.80;99.90;;;;;;5026325;28;20080;-67
2023/04/27 05:49:51;;;;;;;15.20;6.93;;;7.00;99.90;;;;;;5010622;28;20127;-68
2023/04/27 05:52:20;;;;;;;12.77;6.05;;;7.30;99.90;;;;;;5025277;28;20033;-67
2023/04/27 05:54:47;;;;;;;12.23;5.13;;;7.70;99.90;;;;;;5007872;28;20506;-68
2023/04/27 05:57:13;;;;;;;12.10;5.82;;;8.10;99.90;;;;;;5021643;28;20033;-67
2023/04/27 05:59:39;;;;;;;13.55;6.95;;;8.00;99.90;;;;;;5023468;28;20487;-66
2023/04/27 06:02:05;;;;;;;13.50;5.95;;;7.90;99.90;;;;;;5023339;28;20033;-65
2023/04/27 06:04:32;;;;;;;16.52;6.03;;;7.70;99.90;;;;;;5029123;28;20026;-67
2023/04/27 06:06:57;;;;;;;15.50;5.38;;;7.70;99.90;;;;;;5015746;28;20418;-68
2023/04/27 06:09:23;;;;;;;15.32;5.82;;;8.00;99.90;;;;;;5019488;28;20048;-68
2023/04/27 06:11:49;;;;;;;12.50;5.72;;;8.90;99.90;;;;;;5019269;28;20041;-66
2023/04/27 06:14:15;;;;;;;14.10;6.78;;;10.10;97.40;;;;;;5021896;28;20025;-68
2023/04/27 06:16:41;;;;;;;10.25;5.10;;;10.90;96.00;;;;;;5004937;28;20034;-67
2023/04/27 06:19:06;;;;;;;8.40;5.35;;;11.80;94.20;;;;;;5022837;28;21980;-67
2023/04/27 06:21:33;;;;;;;11.55;6.13;;;12.60;93.10;;;;;;5023550;28;20487;-68
2023/04/27 06:23:59;;;;;;;13.35;5.72;;;13.30;91.20;;;;;;5026673;28;20028;-68
2023/04/27 06:26:24;;;;;;;9.98;6.60;;;13.10;90.90;;;;;;5022682;28;20740;-69
2023/04/27 06:28:50;;;;;;;16.70;7.88;;;13.00;90.70;;;;;;5025058;28;20117;-67
2023/04/27 06:31:16;;;;;;;14.15;6.95;;;12.90;90.60;;;;;;5013633;28;20029;-67
2023/04/27 06:33:41;;;;;;;12.85;6.75;;;13.00;90.70;;;;;;5022916;28;20064;-70
2023/04/27 06:36:07;;;;;;;9.55;6.15;;;13.70;91.70;;;;;;5025585;28;20029;-67
2023/04/27 06:38:33;;;;;;;13.75;6.00;;;14.70;88.90;;;;;;5028485;28;20659;-68
2023/04/27 06:40:58;;;;;;;11.05;6.35;;;14.80;86.70;;;;;;5021703;28;20034;-67
2023/04/27 06:43:24;;;;;;;10.95;5.70;;;15.70;83.40;;;;;;5022493;28;21378;-68
2023/04/27 06:45:50;;;;;;;10.40;5.70;;;16.40;80.40;;;;;;5028695;28;20028;-70
2023/04/27 06:48:16;;;;;;;11.43;5.90;;;17.10;78.70;;;;;;5024215;28;20026;-67
2023/04/27 06:50:42;;;;;;;11.25;6.32;;;16.60;77.50;;;;;;5006517;28;20406;-68
2023/04/27 06:53:08;;;;;;;11.50;5.63;;;16.00;82.10;;;;;;5011677;28;20030;-68
2023/04/27 06:55:33;;;;;;;12.98;6.15;;;16.30;79.60;;;;;;5021274;28;20029;-68
2023/04/27 06:57:59;;;;;;;13.35;6.50;;;16.40;79.00;;;;;;5020990;28;20068;-68
2023/04/27 07:00:26;;;;;;;12.02;6.28;;;15.70;80.10;;;;;;5026406;28;20029;-66
2023/04/27 07:02:51;;;;;;;15.00;7.55;;;15.10;80.90;;;;;;5021924;28;20084;-68
2023/04/27 07:05:17;;;;;;;12.02;7.32;;;14.90;83.30;;;;;;5017206;28;20030;-69
2023/04/27 07:07:43;;;;;;;9.65;5.85;;;15.50;81.00;;;;;;5020111;28;20033;-69
2023/04/27 07:10:09;;;;;;;9.25;5.88;;;15.60;78.90;;;;;;5022340;28;20507;-67
2023/04/27 07:12:35;;;;;;;21.27;6.38;;;16.10;80.00;;;;;;5017570;28;20060;-67
2023/04/27 07:15:03;;;;;;;14.32;9.00;;;16.90;77.10;;;;;;5023391;28;20029;-69
2023/04/27 07:17:29;;;;;;;10.95;6.60;;;17.90;75.70;;;;;;5019801;28;20506;-69
2023/04/27 07:19:54;;;;;;;13.10;7.03;;;18.90;72.40;;;;;;5023060;28;20037;-67
2023/04/27 07:22:20;;;;;;;11.63;6.22;;;19.00;72.40;;;;;;5020171;28;20037;-69
2023/04/27 07:24:46;;;;;;;10.80;5.60;;;19.20;70.80;;;;;;5022439;28;20030;-68
2023/04/27 07:27:12;;;;;;;12.07;5.75;;;19.60;70.20;;;;;;5024697;28;20018;-68
2023/04/27 07:29:38;;;;;;;10.93;5.50;;;19.60;69.90;;;;;;5023596;28;20473;-68
2023/04/27 07:32:07;;;;;;;10.23;5.57;;;19.90;69.70;;;;;;5018155;28;20033;-68
2023/04/27 07:34:33;;;;;;;9.20;5.38;;;19.80;69.40;;;;;;5024043;28;20100;-67
2023/04/27 07:37:00;;;;;;;12.23;5.40;;;20.20;67.90;;;;;;5002951;28;22004;-70
2023/04/27 07:39:26;;;;;;;9.85;5.80;;;19.70;68.10;;;;;;5024006;28;20073;-68
2023/04/27 07:41:52;;;;;;;13.40;5.95;;;19.70;67.00;;;;;;5003250;28;20032;-68
2023/04/27 07:44:18;;;;;;;7.95;5.70;;;20.00;67.40;;;;;;5028404;28;20029;-67
2023/04/27 07:46:47;;;;;;;11.63;6.25;;;20.20;67.50;;;;;;5027532;28;20038;-68
2023/04/27 07:49:14;;;;;;;8.60;4.80;;;19.70;65.50;;;;;;5008756;28;20519;-69
2023/04/27 07:51:39;;;;;;;9.07;5.32;;;20.00;65.90;;;;;;5019430;28;20037;-69
2023/04/27 07:54:05;;;;;;;11.60;5.00;;;19.60;64.80;;;;;;5021113;28;20041;-67
2023/04/27 07:56:31;;;;;;;6.43;4.95;;;20.80;65.30;;;;;;5010265;28;20036;-68
2023/04/27 07:58:57;;;;;;;9.02;5.45;;;20.50;63.00;;;;;;5026394;28;20026;-68
2023/04/27 08:01:23;;;;;;;7.22;5.03;;;20.40;62.60;;;;;;5019008;28;20551;-68
2023/04/27 08:03:49;;;;;;;8.32;5.63;;;21.10;61.70;;;;;;5023859;28;20029;-69
2023/04/27 08:06:14;;;;;;;10.55;5.85;;;21.40;61.10;;;;;;5027316;28;20026;-68
2023/04/27 08:08:40;;;;;;;14.02;5.53;;;21.50;59.80;;;;;;5014984;28;20032;-68
2023/04/27 08:11:09;;;;;;;10.45;5.50;;;20.10;61.30;;;;;;5027678;28;20030;-69
2023/04/27 08:13:35;;;;;;;9.27;5.30;;;20.60;60.10;;;;;;5006296;28;20581;-69
2023/04/27 08:16:00;;;;;;;8.60;5.38;;;21.00;56.90;;;;;;5020749;28;20069;-68
2023/04/27 08:18:26;;;;;;;7.82;4.50;;;21.50;57.60;;;;;;5022141;28;20148;-69
2023/04/27 08:20:52;;;;;;;8.32;5.40;;;22.50;57.30;;;;;;5000412;28;20026;-68
2023/04/27 08:23:18;;;;;;;9.27;6.15;;;22.40;56.40;;;;;;5021736;28;20037;-68
2023/04/27 08:25:43;;;;;;;9.32;5.30;;;20.90;56.10;;;;;;5022836;28;20517;-68
2023/04/27 08:28:09;;;;;;;9.95;5.07;;;20.70;58.60;;;;;;5024965;28;20029;-67
2023/04/27 08:30:35;;;;;;;7.82;4.75;;;20.80;57.30;;;;;;5025955;28;20037;-69
2023/04/27 08:33:00;;;;;;;8.82;5.28;;;21.50;56.70;;;;;;4979910;28;20095;-68
2023/04/27 08:35:26;;;;;;;7.88;4.55;;;21.60;55.80;;;;;;5024762;28;20076;-67
2023/04/27 08:37:53;;;;;;;8.02;4.85;;;21.00;57.10;;;;;;5025653;28;20099;-68
2023/04/27 08:40:19;;;;;;;12.65;5.18;;;21.60;56.20;;;;;;5024251;28;20041;-69
2023/04/27 08:43:00;;;;;;;8.57;5.28;;;21.40;56.20;;;;;;5024755;28;20030;-68
2023/04/27 08:45:26;;;;;;;10.85;5.28;;;21.50;56.20;;;;;;5028538;28;20021;-68
2023/04/27 08:47:52;;;;;;;8.68;5.07;;;20.90;55.40;;;;;;5032226;28;20029;-68
2023/04/27 08:50:18;;;;;;;10.95;6.00;;;20.80;56.00;;;;;;5002232;28;20045;-67
2023/04/27 08:52:48;;;;;;;11.35;5.55;;;20.00;58.00;;;;;;5030293;28;20033;-67
2023/04/27 08:55:13;;;;;;;16.55;5.30;;;20.00;56.70;;;;;;5024803;28;20091;-67
2023/04/27 08:57:39;;;;;;;10.57;5.50;;;18.80;59.20;;;;;;5023255;28;20025;-68
2023/04/27 09:00:13;;;;;;;12.70;5.88;;;19.30;60.20;;;;;;5022207;28;20033;-68
2023/04/27 09:02:46;;;;;;;8.60;5.25;;;20.20;58.80;;;;;;5022352;28;20022;-69
2023/04/27 09:05:18;;;;;;;9.65;5.22;;;20.30;59.70;;;;;;5023951;28;20167;-67
2023/04/27 09:08:04;;;;;;;11.88;5.15;;;21.00;56.90;;;;;;5022521;28;20405;-67
2023/04/27 09:10:41;;;;;;;11.13;5.95;;;20.60;57.20;;;;;;5024678;28;20045;-68
2023/04/27 09:13:07;;;;;;;9.07;5.43;;;20.10;56.80;;;;;;5021820;28;20030;-68
2023/04/27 09:15:44;;;;;;;7.85;5.35;;;20.50;56.10;;;;;;5010160;28;20196;-69
2023/04/27 09:18:21;;;;;;;9.77;5.05;;;20.10;56.80;;;;;;5027352;28;20566;-68
2023/04/27 09:20:49;;;;;;;11.07;5.40;;;20.60;57.10;;;;;;5018417;28;20074;-69
2023/04/27 09:23:45;;;;;;;12.32;5.65;;;21.20;55.40;;;;;;5020775;28;20030;-68
2023/04/27 09:26:22;;;;;;;9.32;5.68;;;20.10;58.50;;;;;;4978963;28;20037;-68
2023/04/27 09:28:50;;;;;;;13.45;6.38;;;19.40;58.40;;;;;;5024010;28;20029;-68
2023/04/27 09:31:16;;;;;;;12.30;5.13;;;20.50;56.60;;;;;;5009108;28;20026;-69
2023/04/27 09:33:43;;;;;;;13.15;5.53;;;21.10;55.70;;;;;;5021910;28;20100;-69
2023/04/27 09:36:09;;;;;;;8.57;5.95;;;21.00;55.80;;;;;;4999088;28;20049;-68
2023/04/27 09:38:35;;;;;;;11.13;5.60;;;21.10;56.70;;;;;;5022894;28;20026;-69
2023/04/27 09:41:01;;;;;;;10.60;5.72;;;21.20;54.60;;;;;;5027523;28;20471;-69
2023/04/27 09:43:28;;;;;;;12.02;5.70;;;20.60;55.30;;;;;;5001553;28;20017;-66
2023/04/27 09:45:55;;;;;;;9.95;5.68;;;19.40;57.40;;;;;;5026754;28;20422;-67
2023/04/27 09:48:22;;;;;;;9.70;5.28;;;18.80;58.30;;;;;;5026156;28;20418;-69
2023/04/27 09:50:49;;;;;;;12.25;6.65;;;19.80;57.00;;;;;;5011514;28;20042;-70
2023/04/27 09:53:18;;;;;;;11.15;6.22;;;19.10;58.10;;;;;;5031807;28;20079;-69
2023/04/27 09:56:27;;;;;;;11.25;5.80;;;19.30;58.10;;;;;;5027869;28;20064;-69
2023/04/27 09:59:13;;;;;;;8.27;5.63;;;18.90;58.60;;;;;;5017054;28;20018;-68
2023/04/27 10:01:43;;;;;;;10.40;6.18;;;18.80;58.40;;;;;;5003512;28;20050;-67
2023/04/27 10:04:43;;;;;;;11.60;6.50;;;18.50;58.50;;;;;;5030510;28;20552;-67
2023/04/27 10:07:13;;;;;;;12.52;7.78;;;18.10;59.80;;;;;;5022496;28;20946;-68
2023/04/27 10:09:45;;;;;;;13.75;5.63;;;17.90;61.30;;;;;;5029071;28;20117;-68
2023/04/27 10:12:16;;;;;;;12.32;6.07;;;18.20;61.70;;;;;;5022976;28;20542;-68
2023/04/27 10:14:53;;;;;;;8.88;6.53;;;18.50;61.80;;;;;;5025278;28;20025;-68
2023/04/27 10:17:25;;;;;;;19.25;7.10;;;18.60;59.00;;;;;;5018166;28;20034;-68
2023/04/27 10:20:01;;;;;;;10.60;6.47;;;18.30;59.80;;;;;;5017140;28;20052;-68
2023/04/27 10:22:48;;;;;;;17.60;6.85;;;17.80;60.40;;;;;;5018767;28;20029;-67
2023/04/27 10:25:37;;;;;;;12.27;5.78;;;17.90;60.30;;;;;;4998430;28;20052;-67
2023/04/27 10:28:03;;;;;;;12.93;6.55;;;17.90;62.10;;;;;;5020875;28;20182;-67
2023/04/27 10:30:34;;;;;;;11.63;5.88;;;17.80;60.40;;;;;;5016066;28;20026;-68
2023/04/27 10:33:21;;;;;;;12.40;6.35;;;17.80;61.50;;;;;;5011936;28;20052;-68
2023/04/27 10:35:57;;;;;;;10.68;6.72;;;17.30;62.70;;;;;;5021226;28;20590;-68
2023/04/27 10:38:31;;;;;;;14.57;6.82;;;17.20;61.20;;;;;;5015345;28;20028;-68
2023/04/27 10:41:04;;;;;;;13.80;7.10;;;17.20;63.20;;;;;;5013336;28;20033;-67
2023/04/27 10:43:33;;;;;;;11.82;5.75;;;17.50;62.10;;;;;;5020204;28;20701;-68
2023/04/27 10:46:14;;;;;;;11.85;5.85;;;17.60;62.40;;;;;;5006620;28;20051;-67
2023/04/27 10:48:42;;;;;;;17.30;5.60;;;17.70;62.40;;;;;;5018873;28;20124;-69
2023/04/27 10:51:08;;;;;;;13.52;5.75;;;17.90;61.70;;;;;;5010242;28;20045;-68
2023/04/27 10:53:37;;;;;;;8.50;4.88;;;17.90;62.50;;;;;;5026212;28;20022;-68
2023/04/27 10:56:05;;;;;;;10.93;5.95;;;18.20;61.40;;;;;;5025103;28;20053;-68
2023/04/27 10:58:32;;;;;;;8.63;5.25;;;17.90;63.10;;;;;;5020948;28;20115;-67
2023/04/27 11:00:58;;;;;;;11.75;5.15;;;17.70;61.60;;;;;;5012044;28;20071;-69
2023/04/27 11:03:24;;;;;;;8.32;5.13;;;17.60;62.70;;;;;;5022392;28;20053;-67
2023/04/27 11:06:00;;;;;;;10.48;6.18;;;17.60;63.20;;;;;;5026267;28;20029;-68
2023/04/27 11:08:25;;;;;;;8.80;5.55;;;17.20;64.50;;;;;;5015293;28;20029;-68
2023/04/27 11:10:51;;;;;;;11.18;5.63;;;17.50;64.50;;;;;;5025463;28;20083;-68
2023/04/27 11:13:24;;;;;;;17.27;6.10;;;17.40;61.80;;;;;;5017028;28;20542;-68
2023/04/27 11:15:54;;;;;;;11.73;5.68;;;17.20;63.90;;;;;;5024207;28;20025;-68
2023/04/27 11:18:22;;;;;;;10.50;5.80;;;17.10;63.70;;;;;;5014497;28;20097;-67
2023/04/27 11:20:50;;;;;;;10.80;5.32;;;17.40;62.60;;;;;;5022581;28;20120;-68
2023/04/27 11:23:27;;;;;;;10.23;5.40;;;17.50;63.50;;;;;;5022374;28;20021;-69
2023/04/27 11:25:53;;;;;;;146.68;59.45;;;17.40;63.50;;;;;;4996977;28;20491;-69
2023/04/27 11:28:20;;;;;;;15.68;9.90;;;17.70;63.10;;;;;;5019746;28;20104;-67
2023/04/27 11:30:48;;;;;;;11.85;6.22;;;18.10;61.10;;;;;;5028163;28;20486;-67
2023/04/27 11:33:13;;;;;;;8.43;4.97;;;17.90;61.70;;;;;;5003648;28;20030;-69
2023/04/27 11:35:39;;;;;;;14.27;6.20;;;17.90;61.00;;;;;;5026787;28;20021;-68
2023/04/27 11:38:05;;;;;;;8.40;4.93;;;18.00;61.70;;;;;;5009840;28;20025;-67
2023/04/27 11:40:31;;;;;;;15.45;6.18;;;17.50;61.70;;;;;;5019381;28;20034;-68
2023/04/27 11:43:03;;;;;;;7.13;4.47;;;17.70;63.00;;;;;;5022004;28;20064;-68
2023/04/27 11:45:29;;;;;;;11.07;6.10;;;17.70;61.70;;;;;;5022509;28;20105;-68
2023/04/27 11:47:57;;;;;;;9.52;6.03;;;17.60;62.10;;;;;;5023951;28;20048;-65
2023/04/27 11:50:27;;;;;;;9.63;6.00;;;17.40;62.90;;;;;;5007455;28;20450;-68
2023/04/27 11:52:52;;;;;;;14.98;5.38;;;17.50;62.00;;;;;;5024794;28;20056;-70
2023/04/27 11:55:21;;;;;;;11.38;6.05;;;17.20;61.70;;;;;;5023399;28;20057;-68
2023/04/27 11:57:47;;;;;;;12.07;5.07;;;16.80;62.40;;;;;;5026677;28;20548;-68
2023/04/27 12:00:13;;;;;;;9.38;4.85;;;16.50;65.50;;;;;;5027007;28;20056;-68
2023/04/27 12:02:41;;;;;;;14.77;6.53;;;16.60;64.00;;;;;;5025178;28;20084;-68
2023/04/27 12:05:08;;;;;;;15.07;6.05;;;16.80;63.40;;;;;;5023535;28;20045;-67
2023/04/27 12:07:34;;;;;;;11.82;6.25;;;16.80;63.20;;;;;;5018139;28;20104;-68
2023/04/27 12:09:59;;;;;;;12.43;5.47;;;16.60;65.10;;;;;;5021504;28;20414;-68
2023/04/27 12:12:26;;;;;;;13.00;5.57;;;16.70;64.10;;;;;;5005849;28;20041;-67
2023/04/27 12:14:52;;;;;;;9.95;4.22;;;16.90;65.10;;;;;;5029349;28;20083;-67
2023/04/27 12:17:18;;;;;;;9.20;5.30;;;16.90;65.40;;;;;;5027919;28;20041;-69
2023/04/27 12:19:43;;;;;;;11.80;5.32;;;16.90;64.60;;;;;;5020421;28;20034;-67
2023/04/27 12:22:09;;;;;;;10.20;4.68;;;16.70;64.40;;;;;;5020423;28;20025;-69
2023/04/27 12:24:36;;;;;;;11.00;4.15;;;16.70;65.60;;;;;;5021174;28;20036;-67
2023/04/27 12:27:02;;;;;;;9.65;5.80;;;16.80;65.80;;;;;;5021477;28;20392;-68
2023/04/27 12:29:28;;;;;;;12.50;4.68;;;16.60;66.20;;;;;;5026904;28;20021;-67
2023/04/27 12:31:53;;;;;;;7.57;4.70;;;16.70;66.70;;;;;;5029539;28;20052;-67
2023/04/27 12:34:19;;;;;;;9.25;4.80;;;16.90;65.10;;;;;;5028273;28;20029;-67
2023/04/27 12:36:45;;;;;;;12.05;5.65;;;17.10;65.70;;;;;;5021364;28;20479;-68
2023/04/27 12:39:19;;;;;;;10.10;5.22;;;17.20;66.00;;;;;;5015793;28;20030;-68
2023/04/27 12:41:46;;;;;;;7.70;4.32;;;17.60;63.30;;;;;;5020380;28;20148;-67
2023/04/27 12:44:12;;;;;;;6.93;4.18;;;17.40;63.70;;;;;;5021945;28;20025;-68
2023/04/27 12:46:42;;;;;;;11.25;4.80;;;17.60;66.30;;;;;;5023428;28;20029;-68